sensor_id;sensor_type;location;lat;lon;timestamp;P1;durP1;ratioP1;P2;durP2;ratioP2
19179;SDS011;9722;48.754;8.868;2022-08-25T00:02:06;3.17;;;2.37;;
19179;SDS011;9722;48.754;8.868;2022-08-25T00:05:28;2.40;;;2.30;;
19179;SDS011;9722;48.754;8.868;2022-08-25T00:08:50;2.67;;;2.30;;
19179;SDS011;9722;48.754;8.868;2022-08-25T00:12:11;3.27;;;2.60;;
19179;SDS011;9722;48.754;8.868;2022-08-25T00:15:31;2.87;;;2.67;;
19179;SDS011;9722;48.754;8.868;2022-08-25T00:18:54;2.80;;;2.50;;
19179;SDS011;9722;48.754;8.868;2022-08-25T00:22:18;2.67;;;2.47;;
19179;SDS011;9722;48.754;8.868;2022-08-25T00:25:38;2.73;;;2.53;;
19179;SDS011;9722;48.754;8.868;2022-08-25T00:28:59;2.40;;;2.30;;
19179;SDS011;9722;48.754;8.868;2022-08-25T00:32:19;2.53;;;2.33;;
19179;SDS011;9722;48.754;8.868;2022-08-25T00:35:40;3.87;;;2.50;;
19179;SDS011;9722;48.754;8.868;2022-08-25T00:39:02;2.90;;;2.70;;
19179;SDS011;9722;48.754;8.868;2022-08-25T00:42:24;3.00;;;2.80;;
19179;SDS011;9722;48.754;8.868;2022-08-25T00:45:45;3.10;;;2.90;;
19179;SDS011;9722;48.754;8.868;2022-08-25T00:49:15;2.73;;;2.60;;
19179;SDS011;9722;48.754;8.868;2022-08-25T00:52:44;3.33;;;2.67;;
19179;SDS011;9722;48.754;8.868;2022-08-25T00:56:08;2.93;;;2.47;;
19179;SDS011;9722;48.754;8.868;2022-08-25T00:59:29;2.20;;;2.10;;
19179;SDS011;9722;48.754;8.868;2022-08-25T01:02:50;2.67;;;2.10;;
19179;SDS011;9722;48.754;8.868;2022-08-25T01:06:11;2.47;;;2.27;;
19179;SDS011;9722;48.754;8.868;2022-08-25T01:09:32;2.47;;;2.27;;
19179;SDS011;9722;48.754;8.868;2022-08-25T01:13:07;2.77;;;2.57;;
19179;SDS011;9722;48.754;8.868;2022-08-25T01:16:33;3.83;;;2.30;;
19179;SDS011;9722;48.754;8.868;2022-08-25T01:19:55;2.47;;;2.27;;
19179;SDS011;9722;48.754;8.868;2022-08-25T01:23:15;2.47;;;2.37;;
19179;SDS011;9722;48.754;8.868;2022-08-25T01:26:36;2.73;;;2.53;;
19179;SDS011;9722;48.754;8.868;2022-08-25T01:29:56;2.90;;;2.43;;
19179;SDS011;9722;48.754;8.868;2022-08-25T01:33:17;2.60;;;2.40;;
19179;SDS011;9722;48.754;8.868;2022-08-25T01:36:39;2.27;;;2.17;;
19179;SDS011;9722;48.754;8.868;2022-08-25T01:40:01;2.40;;;2.30;;
19179;SDS011;9722;48.754;8.868;2022-08-25T01:46:54;2.30;;;2.10;;
19179;SDS011;9722;48.754;8.868;2022-08-25T01:50:15;2.50;;;2.30;;
19179;SDS011;9722;48.754;8.868;2022-08-25T01:53:35;2.63;;;2.43;;
19179;SDS011;9722;48.754;8.868;2022-08-25T01:56:56;2.77;;;2.57;;
19179;SDS011;9722;48.754;8.868;2022-08-25T02:00:18;2.53;;;2.33;;
19179;SDS011;9722;48.754;8.868;2022-08-25T02:03:40;4.87;;;2.90;;
19179;SDS011;9722;48.754;8.868;2022-08-25T02:07:04;3.00;;;2.80;;
19179;SDS011;9722;48.754;8.868;2022-08-25T02:10:27;3.80;;;3.53;;
19179;SDS011;9722;48.754;8.868;2022-08-25T02:13:47;3.03;;;2.83;;
19179;SDS011;9722;48.754;8.868;2022-08-25T02:17:08;3.37;;;3.07;;
19179;SDS011;9722;48.754;8.868;2022-08-25T02:20:29;3.40;;;3.10;;
19179;SDS011;9722;48.754;8.868;2022-08-25T02:23:49;3.00;;;2.73;;
19179;SDS011;9722;48.754;8.868;2022-08-25T02:27:10;2.53;;;2.33;;
19179;SDS011;9722;48.754;8.868;2022-08-25T02:30:31;2.87;;;2.63;;
19179;SDS011;9722;48.754;8.868;2022-08-25T02:33:52;3.03;;;2.73;;
19179;SDS011;9722;48.754;8.868;2022-08-25T02:37:14;5.17;;;3.20;;
19179;SDS011;9722;48.754;8.868;2022-08-25T02:40:34;2.90;;;2.70;;
19179;SDS011;9722;48.754;8.868;2022-08-25T02:43:55;3.00;;;2.70;;
19179;SDS011;9722;48.754;8.868;2022-08-25T02:47:15;3.10;;;2.87;;
19179;SDS011;9722;48.754;8.868;2022-08-25T02:50:36;2.80;;;2.60;;
19179;SDS011;9722;48.754;8.868;2022-08-25T02:53:58;2.80;;;2.60;;
19179;SDS011;9722;48.754;8.868;2022-08-25T02:57:21;2.70;;;2.50;;
19179;SDS011;9722;48.754;8.868;2022-08-25T03:00:41;3.40;;;3.10;;
19179;SDS011;9722;48.754;8.868;2022-08-25T03:04:02;2.80;;;2.60;;
19179;SDS011;9722;48.754;8.868;2022-08-25T03:07:22;4.17;;;2.20;;
19179;SDS011;9722;48.754;8.868;2022-08-25T03:10:43;2.93;;;2.73;;
19179;SDS011;9722;48.754;8.868;2022-08-25T03:14:04;2.73;;;2.63;;
19179;SDS011;9722;48.754;8.868;2022-08-25T03:17:26;3.97;;;2.67;;
19179;SDS011;9722;48.754;8.868;2022-08-25T03:20:46;2.47;;;2.37;;
19179;SDS011;9722;48.754;8.868;2022-08-25T03:24:07;3.80;;;2.80;;
19179;SDS011;9722;48.754;8.868;2022-08-25T03:27:27;2.80;;;2.60;;
19179;SDS011;9722;48.754;8.868;2022-08-25T03:30:49;3.30;;;3.03;;
19179;SDS011;9722;48.754;8.868;2022-08-25T03:34:13;3.10;;;2.90;;
19179;SDS011;9722;48.754;8.868;2022-08-25T03:37:38;3.47;;;3.00;;
19179;SDS011;9722;48.754;8.868;2022-08-25T03:40:58;3.20;;;3.00;;
19179;SDS011;9722;48.754;8.868;2022-08-25T03:44:19;3.37;;;3.07;;
19179;SDS011;9722;48.754;8.868;2022-08-25T03:47:40;3.37;;;3.17;;
19179;SDS011;9722;48.754;8.868;2022-08-25T03:51:01;3.50;;;3.30;;
19179;SDS011;9722;48.754;8.868;2022-08-25T03:54:22;3.70;;;3.23;;
19179;SDS011;9722;48.754;8.868;2022-08-25T03:57:44;3.73;;;3.43;;
19179;SDS011;9722;48.754;8.868;2022-08-25T04:01:04;3.03;;;2.80;;
19179;SDS011;9722;48.754;8.868;2022-08-25T04:04:25;3.47;;;3.20;;
19179;SDS011;9722;48.754;8.868;2022-08-25T04:07:45;3.53;;;3.33;;
19179;SDS011;9722;48.754;8.868;2022-08-25T04:11:07;3.30;;;3.10;;
19179;SDS011;9722;48.754;8.868;2022-08-25T04:14:29;3.23;;;3.03;;
19179;SDS011;9722;48.754;8.868;2022-08-25T04:17:50;3.93;;;3.57;;
19179;SDS011;9722;48.754;8.868;2022-08-25T04:21:11;6.07;;;3.40;;
19179;SDS011;9722;48.754;8.868;2022-08-25T04:24:32;3.73;;;3.50;;
19179;SDS011;9722;48.754;8.868;2022-08-25T04:27:53;3.43;;;3.17;;
19179;SDS011;9722;48.754;8.868;2022-08-25T04:31:14;3.63;;;3.33;;
19179;SDS011;9722;48.754;8.868;2022-08-25T04:34:35;3.33;;;3.13;;
19179;SDS011;9722;48.754;8.868;2022-08-25T04:37:56;3.47;;;3.17;;
19179;SDS011;9722;48.754;8.868;2022-08-25T04:41:18;3.30;;;3.10;;
19179;SDS011;9722;48.754;8.868;2022-08-25T04:44:40;3.57;;;3.30;;
19179;SDS011;9722;48.754;8.868;2022-08-25T04:48:00;3.30;;;3.10;;
19179;SDS011;9722;48.754;8.868;2022-08-25T04:51:22;3.93;;;3.63;;
19179;SDS011;9722;48.754;8.868;2022-08-25T04:54:50;3.57;;;3.30;;
19179;SDS011;9722;48.754;8.868;2022-08-25T04:58:11;3.83;;;3.53;;
19179;SDS011;9722;48.754;8.868;2022-08-25T05:01:34;4.17;;;3.83;;
19179;SDS011;9722;48.754;8.868;2022-08-25T05:04:55;3.70;;;3.40;;
19179;SDS011;9722;48.754;8.868;2022-08-25T05:08:15;3.90;;;3.60;;
19179;SDS011;9722;48.754;8.868;2022-08-25T05:11:36;3.70;;;3.40;;
19179;SDS011;9722;48.754;8.868;2022-08-25T05:14:57;4.10;;;3.80;;
19179;SDS011;9722;48.754;8.868;2022-08-25T05:18:37;3.93;;;3.63;;
19179;SDS011;9722;48.754;8.868;2022-08-25T05:21:58;3.50;;;3.20;;
19179;SDS011;9722;48.754;8.868;2022-08-25T05:25:22;3.67;;;3.47;;
19179;SDS011;9722;48.754;8.868;2022-08-25T05:28:43;3.23;;;3.03;;
19179;SDS011;9722;48.754;8.868;2022-08-25T05:32:04;4.17;;;3.60;;
19179;SDS011;9722;48.754;8.868;2022-08-25T05:35:24;3.73;;;3.30;;
19179;SDS011;9722;48.754;8.868;2022-08-25T05:38:45;3.20;;;2.90;;
19179;SDS011;9722;48.754;8.868;2022-08-25T05:42:06;3.80;;;3.50;;
19179;SDS011;9722;48.754;8.868;2022-08-25T05:45:26;3.60;;;3.30;;
19179;SDS011;9722;48.754;8.868;2022-08-25T05:48:47;3.30;;;3.10;;
19179;SDS011;9722;48.754;8.868;2022-08-25T05:52:08;3.53;;;3.27;;
19179;SDS011;9722;48.754;8.868;2022-08-25T05:55:29;3.27;;;2.97;;
19179;SDS011;9722;48.754;8.868;2022-08-25T05:58:49;4.23;;;2.87;;
19179;SDS011;9722;48.754;8.868;2022-08-25T06:02:10;3.50;;;3.20;;
19179;SDS011;9722;48.754;8.868;2022-08-25T06:05:49;9.20;;;3.53;;
19179;SDS011;9722;48.754;8.868;2022-08-25T06:09:10;4.87;;;3.40;;
19179;SDS011;9722;48.754;8.868;2022-08-25T06:12:31;3.80;;;3.37;;
19179;SDS011;9722;48.754;8.868;2022-08-25T06:15:58;3.47;;;3.17;;
19179;SDS011;9722;48.754;8.868;2022-08-25T06:19:19;4.33;;;3.00;;
19179;SDS011;9722;48.754;8.868;2022-08-25T06:22:42;7.00;;;3.37;;
19179;SDS011;9722;48.754;8.868;2022-08-25T06:26:03;5.90;;;3.43;;
19179;SDS011;9722;48.754;8.868;2022-08-25T06:29:24;3.50;;;3.20;;
19179;SDS011;9722;48.754;8.868;2022-08-25T06:32:45;3.27;;;2.77;;
19179;SDS011;9722;48.754;8.868;2022-08-25T06:36:06;3.37;;;3.07;;
19179;SDS011;9722;48.754;8.868;2022-08-25T06:39:27;3.53;;;3.33;;
19179;SDS011;9722;48.754;8.868;2022-08-25T06:42:48;2.77;;;2.57;;
19179;SDS011;9722;48.754;8.868;2022-08-25T06:46:12;3.70;;;3.40;;
19179;SDS011;9722;48.754;8.868;2022-08-25T06:49:34;3.57;;;3.10;;
19179;SDS011;9722;48.754;8.868;2022-08-25T06:52:55;5.43;;;3.73;;
19179;SDS011;9722;48.754;8.868;2022-08-25T06:56:16;4.33;;;3.30;;
19179;SDS011;9722;48.754;8.868;2022-08-25T06:59:38;3.87;;;3.57;;
19179;SDS011;9722;48.754;8.868;2022-08-25T07:02:59;3.67;;;3.43;;
19179;SDS011;9722;48.754;8.868;2022-08-25T07:06:20;3.13;;;2.90;;
19179;SDS011;9722;48.754;8.868;2022-08-25T07:09:41;3.57;;;3.30;;
19179;SDS011;9722;48.754;8.868;2022-08-25T07:13:01;4.40;;;4.00;;
19179;SDS011;9722;48.754;8.868;2022-08-25T07:16:22;4.67;;;3.20;;
19179;SDS011;9722;48.754;8.868;2022-08-25T07:19:43;5.23;;;3.67;;
19179;SDS011;9722;48.754;8.868;2022-08-25T07:23:03;5.27;;;3.40;;
19179;SDS011;9722;48.754;8.868;2022-08-25T07:26:25;3.40;;;3.10;;
19179;SDS011;9722;48.754;8.868;2022-08-25T07:29:48;6.67;;;3.10;;
19179;SDS011;9722;48.754;8.868;2022-08-25T07:33:09;6.10;;;3.53;;
19179;SDS011;9722;48.754;8.868;2022-08-25T07:36:30;4.67;;;3.53;;
19179;SDS011;9722;48.754;8.868;2022-08-25T07:39:51;8.07;;;3.90;;
19179;SDS011;9722;48.754;8.868;2022-08-25T07:43:12;3.73;;;3.43;;
19179;SDS011;9722;48.754;8.868;2022-08-25T07:46:33;5.30;;;3.73;;
19179;SDS011;9722;48.754;8.868;2022-08-25T07:49:53;4.57;;;3.03;;
19179;SDS011;9722;48.754;8.868;2022-08-25T07:53:14;3.83;;;3.43;;
19179;SDS011;9722;48.754;8.868;2022-08-25T07:56:35;4.97;;;3.43;;
19179;SDS011;9722;48.754;8.868;2022-08-25T07:59:57;3.73;;;3.40;;
19179;SDS011;9722;48.754;8.868;2022-08-25T08:03:18;4.23;;;3.57;;
19179;SDS011;9722;48.754;8.868;2022-08-25T08:06:39;4.10;;;3.70;;
19179;SDS011;9722;48.754;8.868;2022-08-25T08:10:00;3.83;;;3.13;;
19179;SDS011;9722;48.754;8.868;2022-08-25T08:13:22;4.03;;;3.73;;
19179;SDS011;9722;48.754;8.868;2022-08-25T08:16:45;3.50;;;3.30;;
19179;SDS011;9722;48.754;8.868;2022-08-25T08:20:06;3.30;;;3.10;;
19179;SDS011;9722;48.754;8.868;2022-08-25T08:23:28;4.70;;;3.57;;
19179;SDS011;9722;48.754;8.868;2022-08-25T08:26:49;4.03;;;3.20;;
19179;SDS011;9722;48.754;8.868;2022-08-25T08:30:10;3.67;;;3.47;;
19179;SDS011;9722;48.754;8.868;2022-08-25T08:33:32;3.73;;;3.53;;
19179;SDS011;9722;48.754;8.868;2022-08-25T08:36:53;4.30;;;3.10;;
19179;SDS011;9722;48.754;8.868;2022-08-25T08:40:14;4.33;;;3.03;;
19179;SDS011;9722;48.754;8.868;2022-08-25T08:43:37;2.87;;;2.70;;
19179;SDS011;9722;48.754;8.868;2022-08-25T08:47:20;2.90;;;2.80;;
19179;SDS011;9722;48.754;8.868;2022-08-25T08:51:06;3.47;;;3.27;;
19179;SDS011;9722;48.754;8.868;2022-08-25T08:54:40;3.10;;;2.90;;
19179;SDS011;9722;48.754;8.868;2022-08-25T08:58:04;3.27;;;3.07;;
19179;SDS011;9722;48.754;8.868;2022-08-25T09:01:30;4.72;;;3.70;;
19179;SDS011;9722;48.754;8.868;2022-08-25T09:04:54;3.13;;;2.92;;
19179;SDS011;9722;48.754;8.868;2022-08-25T09:08:19;5.85;;;3.50;;
19179;SDS011;9722;48.754;8.868;2022-08-25T09:19:40;3.40;;;3.15;;
19179;SDS011;9722;48.754;8.868;2022-08-25T09:23:24;3.80;;;3.38;;
19179;SDS011;9722;48.754;8.868;2022-08-25T09:26:57;3.20;;;3.00;;
19179;SDS011;9722;48.754;8.868;2022-08-25T09:34:16;3.63;;;3.35;;
19179;SDS011;9722;48.754;8.868;2022-08-25T09:37:41;3.53;;;3.22;;
19179;SDS011;9722;48.754;8.868;2022-08-25T09:41:02;3.58;;;3.10;;
19179;SDS011;9722;48.754;8.868;2022-08-25T09:44:24;3.40;;;3.20;;
19179;SDS011;9722;48.754;8.868;2022-08-25T09:48:22;3.27;;;3.07;;
19179;SDS011;9722;48.754;8.868;2022-08-25T09:51:47;3.20;;;2.88;;
19179;SDS011;9722;48.754;8.868;2022-08-25T09:58:32;4.38;;;3.15;;
19179;SDS011;9722;48.754;8.868;2022-08-25T10:01:54;3.00;;;2.88;;
19179;SDS011;9722;48.754;8.868;2022-08-25T10:05:17;3.42;;;3.20;;
19179;SDS011;9722;48.754;8.868;2022-08-25T10:12:14;2.92;;;2.83;;
19179;SDS011;9722;48.754;8.868;2022-08-25T10:15:37;3.90;;;3.60;;
19179;SDS011;9722;48.754;8.868;2022-08-25T10:19:03;3.72;;;3.22;;
19179;SDS011;9722;48.754;8.868;2022-08-25T10:22:28;3.58;;;3.20;;
19179;SDS011;9722;48.754;8.868;2022-08-25T10:25:53;3.20;;;3.00;;
19179;SDS011;9722;48.754;8.868;2022-08-25T10:29:18;3.25;;;3.05;;
19179;SDS011;9722;48.754;8.868;2022-08-25T10:33:08;3.53;;;3.33;;
19179;SDS011;9722;48.754;8.868;2022-08-25T10:36:41;3.25;;;3.05;;
19179;SDS011;9722;48.754;8.868;2022-08-25T10:40:27;3.47;;;3.17;;
19179;SDS011;9722;48.754;8.868;2022-08-25T10:44:07;2.78;;;2.67;;
19179;SDS011;9722;48.754;8.868;2022-08-25T10:51:46;4.07;;;2.85;;
19179;SDS011;9722;48.754;8.868;2022-08-25T10:55:19;3.25;;;3.00;;
19179;SDS011;9722;48.754;8.868;2022-08-25T11:06:06;3.17;;;2.90;;
19179;SDS011;9722;48.754;8.868;2022-08-25T11:09:33;3.75;;;2.90;;
19179;SDS011;9722;48.754;8.868;2022-08-25T11:12:59;2.90;;;2.70;;
19179;SDS011;9722;48.754;8.868;2022-08-25T11:19:59;3.28;;;3.00;;
19179;SDS011;9722;48.754;8.868;2022-08-25T11:24:12;3.42;;;3.10;;
19179;SDS011;9722;48.754;8.868;2022-08-25T11:27:27;3.65;;;3.45;;
19179;SDS011;9722;48.754;8.868;2022-08-25T11:30:54;2.70;;;2.50;;
19179;SDS011;9722;48.754;8.868;2022-08-25T11:34:17;2.72;;;2.63;;
19179;SDS011;9722;48.754;8.868;2022-08-25T11:37:52;2.67;;;2.55;;
19179;SDS011;9722;48.754;8.868;2022-08-25T11:41:43;2.97;;;2.78;;
19179;SDS011;9722;48.754;8.868;2022-08-25T11:45:39;2.72;;;2.53;;
19179;SDS011;9722;48.754;8.868;2022-08-25T11:53:40;2.95;;;2.75;;
19179;SDS011;9722;48.754;8.868;2022-08-25T11:56:56;3.33;;;2.47;;
19179;SDS011;9722;48.754;8.868;2022-08-25T12:04:15;2.83;;;2.65;;
19179;SDS011;9722;48.754;8.868;2022-08-25T12:07:56;3.25;;;3.05;;
19179;SDS011;9722;48.754;8.868;2022-08-25T12:11:54;2.80;;;2.70;;
19179;SDS011;9722;48.754;8.868;2022-08-25T12:22:43;2.83;;;2.63;;
19179;SDS011;9722;48.754;8.868;2022-08-25T12:26:18;2.70;;;2.60;;
19179;SDS011;9722;48.754;8.868;2022-08-25T12:33:33;3.10;;;2.80;;
19179;SDS011;9722;48.754;8.868;2022-08-25T12:37:22;2.30;;;2.20;;
19179;SDS011;9722;48.754;8.868;2022-08-25T12:44:09;2.20;;;2.10;;
19179;SDS011;9722;48.754;8.868;2022-08-25T12:47:52;2.83;;;2.63;;
19179;SDS011;9722;48.754;8.868;2022-08-25T12:51:18;2.10;;;2.00;;
19179;SDS011;9722;48.754;8.868;2022-08-25T12:58:12;2.22;;;2.03;;
19179;SDS011;9722;48.754;8.868;2022-08-25T13:05:29;2.75;;;2.33;;
19179;SDS011;9722;48.754;8.868;2022-08-25T13:16:28;4.88;;;2.30;;
19179;SDS011;9722;48.754;8.868;2022-08-25T13:19:49;2.20;;;2.10;;
19179;SDS011;9722;48.754;8.868;2022-08-25T13:23:10;1.90;;;1.80;;
19179;SDS011;9722;48.754;8.868;2022-08-25T13:26:36;2.03;;;1.92;;
19179;SDS011;9722;48.754;8.868;2022-08-25T13:29:59;2.30;;;2.20;;
19179;SDS011;9722;48.754;8.868;2022-08-25T13:33:20;2.22;;;2.13;;
19179;SDS011;9722;48.754;8.868;2022-08-25T13:36:43;2.35;;;2.17;;
19179;SDS011;9722;48.754;8.868;2022-08-25T13:43:46;2.20;;;2.00;;
19179;SDS011;9722;48.754;8.868;2022-08-25T13:47:08;2.13;;;2.03;;
19179;SDS011;9722;48.754;8.868;2022-08-25T13:50:33;4.22;;;2.25;;
19179;SDS011;9722;48.754;8.868;2022-08-25T13:53:57;2.20;;;2.10;;
19179;SDS011;9722;48.754;8.868;2022-08-25T13:57:23;2.20;;;2.05;;
19179;SDS011;9722;48.754;8.868;2022-08-25T14:00:46;1.88;;;1.77;;
19179;SDS011;9722;48.754;8.868;2022-08-25T14:04:26;2.05;;;1.95;;
19179;SDS011;9722;48.754;8.868;2022-08-25T14:07:55;2.15;;;2.05;;
19179;SDS011;9722;48.754;8.868;2022-08-25T14:14:59;2.10;;;2.00;;
19179;SDS011;9722;48.754;8.868;2022-08-25T14:18:26;2.55;;;2.45;;
19179;SDS011;9722;48.754;8.868;2022-08-25T14:21:51;2.63;;;2.25;;
19179;SDS011;9722;48.754;8.868;2022-08-25T14:25:12;2.50;;;2.30;;
19179;SDS011;9722;48.754;8.868;2022-08-25T14:28:33;4.17;;;2.40;;
19179;SDS011;9722;48.754;8.868;2022-08-25T14:31:54;3.30;;;2.57;;
19179;SDS011;9722;48.754;8.868;2022-08-25T14:35:15;2.60;;;2.40;;
19179;SDS011;9722;48.754;8.868;2022-08-25T14:38:37;2.30;;;2.10;;
19179;SDS011;9722;48.754;8.868;2022-08-25T14:41:58;2.50;;;2.40;;
19179;SDS011;9722;48.754;8.868;2022-08-25T14:45:18;3.67;;;2.13;;
19179;SDS011;9722;48.754;8.868;2022-08-25T14:48:39;2.17;;;2.07;;
19179;SDS011;9722;48.754;8.868;2022-08-25T14:52:09;1.83;;;1.73;;
19179;SDS011;9722;48.754;8.868;2022-08-25T14:55:37;2.20;;;2.00;;
19179;SDS011;9722;48.754;8.868;2022-08-25T14:58:58;2.00;;;1.90;;
19179;SDS011;9722;48.754;8.868;2022-08-25T15:02:20;2.20;;;2.10;;
19179;SDS011;9722;48.754;8.868;2022-08-25T15:05:42;2.30;;;2.10;;
19179;SDS011;9722;48.754;8.868;2022-08-25T15:09:03;2.10;;;1.90;;
19179;SDS011;9722;48.754;8.868;2022-08-25T15:12:26;1.87;;;1.77;;
19179;SDS011;9722;48.754;8.868;2022-08-25T15:15:47;2.00;;;1.90;;
19179;SDS011;9722;48.754;8.868;2022-08-25T15:19:08;2.13;;;1.80;;
19179;SDS011;9722;48.754;8.868;2022-08-25T15:22:33;3.17;;;2.00;;
19179;SDS011;9722;48.754;8.868;2022-08-25T15:25:54;1.90;;;1.80;;
19179;SDS011;9722;48.754;8.868;2022-08-25T15:29:15;1.83;;;1.73;;
19179;SDS011;9722;48.754;8.868;2022-08-25T15:32:37;1.97;;;1.87;;
19179;SDS011;9722;48.754;8.868;2022-08-25T15:35:57;2.20;;;2.10;;
19179;SDS011;9722;48.754;8.868;2022-08-25T15:39:18;2.27;;;2.07;;
19179;SDS011;9722;48.754;8.868;2022-08-25T15:42:38;1.90;;;1.80;;
19179;SDS011;9722;48.754;8.868;2022-08-25T15:45:59;1.90;;;1.80;;
19179;SDS011;9722;48.754;8.868;2022-08-25T15:49:20;1.67;;;1.57;;
19179;SDS011;9722;48.754;8.868;2022-08-25T15:52:41;1.90;;;1.80;;
19179;SDS011;9722;48.754;8.868;2022-08-25T15:56:05;2.87;;;1.90;;
19179;SDS011;9722;48.754;8.868;2022-08-25T15:59:26;2.27;;;2.07;;
19179;SDS011;9722;48.754;8.868;2022-08-25T16:02:47;2.10;;;1.90;;
19179;SDS011;9722;48.754;8.868;2022-08-25T16:06:08;2.20;;;2.07;;
19179;SDS011;9722;48.754;8.868;2022-08-25T16:09:29;1.83;;;1.70;;
19179;SDS011;9722;48.754;8.868;2022-08-25T16:12:50;2.37;;;2.17;;
19179;SDS011;9722;48.754;8.868;2022-08-25T16:16:10;1.93;;;1.80;;
19179;SDS011;9722;48.754;8.868;2022-08-25T16:19:32;1.83;;;1.73;;
19179;SDS011;9722;48.754;8.868;2022-08-25T16:22:52;1.93;;;1.83;;
19179;SDS011;9722;48.754;8.868;2022-08-25T16:26:13;2.00;;;1.90;;
19179;SDS011;9722;48.754;8.868;2022-08-25T16:29:34;3.50;;;2.00;;
19179;SDS011;9722;48.754;8.868;2022-08-25T16:32:55;2.10;;;1.90;;
19179;SDS011;9722;48.754;8.868;2022-08-25T16:36:17;2.03;;;1.93;;
19179;SDS011;9722;48.754;8.868;2022-08-25T16:39:40;2.80;;;1.80;;
19179;SDS011;9722;48.754;8.868;2022-08-25T16:43:04;3.50;;;1.77;;
19179;SDS011;9722;48.754;8.868;2022-08-25T16:46:25;2.17;;;1.97;;
19179;SDS011;9722;48.754;8.868;2022-08-25T16:49:46;3.50;;;2.37;;
19179;SDS011;9722;48.754;8.868;2022-08-25T16:53:06;2.03;;;1.87;;
19179;SDS011;9722;48.754;8.868;2022-08-25T16:56:45;1.83;;;1.73;;
19179;SDS011;9722;48.754;8.868;2022-08-25T17:00:07;1.77;;;1.60;;
19179;SDS011;9722;48.754;8.868;2022-08-25T17:03:31;1.90;;;1.80;;
19179;SDS011;9722;48.754;8.868;2022-08-25T17:06:53;4.47;;;1.80;;
19179;SDS011;9722;48.754;8.868;2022-08-25T17:10:13;2.80;;;1.83;;
19179;SDS011;9722;48.754;8.868;2022-08-25T17:13:35;2.13;;;1.60;;
19179;SDS011;9722;48.754;8.868;2022-08-25T17:16:57;1.80;;;1.70;;
19179;SDS011;9722;48.754;8.868;2022-08-25T17:20:17;2.13;;;1.93;;
19179;SDS011;9722;48.754;8.868;2022-08-25T17:23:38;2.00;;;1.90;;
19179;SDS011;9722;48.754;8.868;2022-08-25T17:27:03;2.33;;;2.23;;
19179;SDS011;9722;48.754;8.868;2022-08-25T17:30:23;2.10;;;1.90;;
19179;SDS011;9722;48.754;8.868;2022-08-25T17:33:44;2.30;;;2.20;;
19179;SDS011;9722;48.754;8.868;2022-08-25T17:37:04;3.60;;;2.13;;
19179;SDS011;9722;48.754;8.868;2022-08-25T17:40:25;2.80;;;1.90;;
19179;SDS011;9722;48.754;8.868;2022-08-25T17:43:46;2.27;;;2.07;;
19179;SDS011;9722;48.754;8.868;2022-08-25T17:47:06;1.93;;;1.83;;
19179;SDS011;9722;48.754;8.868;2022-08-25T17:50:28;2.70;;;1.80;;
19179;SDS011;9722;48.754;8.868;2022-08-25T17:53:49;2.53;;;2.33;;
19179;SDS011;9722;48.754;8.868;2022-08-25T17:57:11;2.33;;;2.13;;
19179;SDS011;9722;48.754;8.868;2022-08-25T18:00:33;2.30;;;2.10;;
19179;SDS011;9722;48.754;8.868;2022-08-25T18:03:55;1.90;;;1.73;;
19179;SDS011;9722;48.754;8.868;2022-08-25T18:07:17;2.30;;;2.20;;
19179;SDS011;9722;48.754;8.868;2022-08-25T18:10:38;1.93;;;1.83;;
19179;SDS011;9722;48.754;8.868;2022-08-25T18:13:59;2.10;;;1.90;;
19179;SDS011;9722;48.754;8.868;2022-08-25T18:17:19;1.87;;;1.77;;
19179;SDS011;9722;48.754;8.868;2022-08-25T18:20:41;2.50;;;2.10;;
19179;SDS011;9722;48.754;8.868;2022-08-25T18:24:05;2.30;;;2.10;;
19179;SDS011;9722;48.754;8.868;2022-08-25T18:27:26;2.30;;;2.07;;
19179;SDS011;9722;48.754;8.868;2022-08-25T18:30:47;2.70;;;2.10;;
19179;SDS011;9722;48.754;8.868;2022-08-25T18:34:08;2.67;;;2.50;;
19179;SDS011;9722;48.754;8.868;2022-08-25T18:37:30;2.27;;;2.17;;
19179;SDS011;9722;48.754;8.868;2022-08-25T18:41:09;2.40;;;2.20;;
19179;SDS011;9722;48.754;8.868;2022-08-25T18:44:30;4.40;;;2.43;;
19179;SDS011;9722;48.754;8.868;2022-08-25T18:47:51;3.23;;;2.37;;
19179;SDS011;9722;48.754;8.868;2022-08-25T18:51:15;10.03;;;2.40;;
19179;SDS011;9722;48.754;8.868;2022-08-25T18:54:36;5.00;;;2.10;;
19179;SDS011;9722;48.754;8.868;2022-08-25T18:57:58;3.57;;;2.60;;
19179;SDS011;9722;48.754;8.868;2022-08-25T19:01:19;2.30;;;2.07;;
19179;SDS011;9722;48.754;8.868;2022-08-25T19:04:39;2.93;;;2.30;;
19179;SDS011;9722;48.754;8.868;2022-08-25T19:08:01;6.63;;;2.63;;
19179;SDS011;9722;48.754;8.868;2022-08-25T19:11:24;3.70;;;2.70;;
19179;SDS011;9722;48.754;8.868;2022-08-25T19:14:45;3.10;;;2.20;;
19179;SDS011;9722;48.754;8.868;2022-08-25T19:18:06;3.20;;;2.33;;
19179;SDS011;9722;48.754;8.868;2022-08-25T19:21:26;4.33;;;2.57;;
19179;SDS011;9722;48.754;8.868;2022-08-25T19:24:47;2.43;;;2.23;;
19179;SDS011;9722;48.754;8.868;2022-08-25T19:28:09;3.03;;;2.70;;
19179;SDS011;9722;48.754;8.868;2022-08-25T19:31:30;6.10;;;2.97;;
19179;SDS011;9722;48.754;8.868;2022-08-25T19:34:51;2.77;;;2.50;;
19179;SDS011;9722;48.754;8.868;2022-08-25T19:38:15;2.30;;;2.20;;
19179;SDS011;9722;48.754;8.868;2022-08-25T19:41:39;3.03;;;2.43;;
19179;SDS011;9722;48.754;8.868;2022-08-25T19:45:02;2.37;;;2.17;;
19179;SDS011;9722;48.754;8.868;2022-08-25T19:48:27;2.77;;;2.40;;
19179;SDS011;9722;48.754;8.868;2022-08-25T19:51:49;2.90;;;2.70;;
19179;SDS011;9722;48.754;8.868;2022-08-25T19:55:11;4.30;;;2.70;;
19179;SDS011;9722;48.754;8.868;2022-08-25T19:58:32;3.37;;;2.57;;
19179;SDS011;9722;48.754;8.868;2022-08-25T20:01:52;3.80;;;3.00;;
19179;SDS011;9722;48.754;8.868;2022-08-25T20:05:13;2.83;;;2.63;;
19179;SDS011;9722;48.754;8.868;2022-08-25T20:08:35;3.17;;;2.50;;
19179;SDS011;9722;48.754;8.868;2022-08-25T20:11:56;3.13;;;2.50;;
19179;SDS011;9722;48.754;8.868;2022-08-25T20:15:16;5.60;;;2.63;;
19179;SDS011;9722;48.754;8.868;2022-08-25T20:18:37;2.80;;;2.13;;
19179;SDS011;9722;48.754;8.868;2022-08-25T20:21:57;3.87;;;2.60;;
19179;SDS011;9722;48.754;8.868;2022-08-25T20:25:22;2.97;;;2.70;;
19179;SDS011;9722;48.754;8.868;2022-08-25T20:28:44;2.80;;;2.60;;
19179;SDS011;9722;48.754;8.868;2022-08-25T20:32:04;3.30;;;3.00;;
19179;SDS011;9722;48.754;8.868;2022-08-25T20:35:25;4.17;;;2.27;;
19179;SDS011;9722;48.754;8.868;2022-08-25T20:38:47;3.00;;;2.50;;
19179;SDS011;9722;48.754;8.868;2022-08-25T20:42:07;3.60;;;2.63;;
19179;SDS011;9722;48.754;8.868;2022-08-25T20:45:28;4.00;;;2.43;;
19179;SDS011;9722;48.754;8.868;2022-08-25T20:48:49;2.60;;;2.50;;
19179;SDS011;9722;48.754;8.868;2022-08-25T20:52:10;5.33;;;2.83;;
19179;SDS011;9722;48.754;8.868;2022-08-25T20:55:30;2.70;;;2.50;;
19179;SDS011;9722;48.754;8.868;2022-08-25T20:58:51;3.13;;;2.40;;
19179;SDS011;9722;48.754;8.868;2022-08-25T21:02:12;2.97;;;2.60;;
19179;SDS011;9722;48.754;8.868;2022-08-25T21:05:33;3.60;;;2.73;;
19179;SDS011;9722;48.754;8.868;2022-08-25T21:08:56;3.50;;;3.20;;
19179;SDS011;9722;48.754;8.868;2022-08-25T21:12:17;2.90;;;2.70;;
19179;SDS011;9722;48.754;8.868;2022-08-25T21:15:38;3.03;;;2.50;;
19179;SDS011;9722;48.754;8.868;2022-08-25T21:19:00;3.43;;;2.83;;
19179;SDS011;9722;48.754;8.868;2022-08-25T21:22:20;3.53;;;3.13;;
19179;SDS011;9722;48.754;8.868;2022-08-25T21:25:41;3.20;;;2.90;;
19179;SDS011;9722;48.754;8.868;2022-08-25T21:29:02;3.53;;;2.70;;
19179;SDS011;9722;48.754;8.868;2022-08-25T21:32:23;3.03;;;2.70;;
19179;SDS011;9722;48.754;8.868;2022-08-25T21:35:44;4.03;;;3.00;;
19179;SDS011;9722;48.754;8.868;2022-08-25T21:39:04;3.37;;;3.17;;
19179;SDS011;9722;48.754;8.868;2022-08-25T21:42:25;3.40;;;2.57;;
19179;SDS011;9722;48.754;8.868;2022-08-25T21:45:46;3.50;;;2.93;;
19179;SDS011;9722;48.754;8.868;2022-08-25T21:49:07;3.00;;;2.60;;
19179;SDS011;9722;48.754;8.868;2022-08-25T21:52:27;3.33;;;3.03;;
19179;SDS011;9722;48.754;8.868;2022-08-25T21:55:48;3.30;;;3.00;;
19179;SDS011;9722;48.754;8.868;2022-08-25T21:59:10;3.07;;;2.80;;
19179;SDS011;9722;48.754;8.868;2022-08-25T22:02:33;3.50;;;2.80;;
19179;SDS011;9722;48.754;8.868;2022-08-25T22:05:54;3.13;;;2.90;;